Sheffield, Texas
Current Conditions -  °F | °C
As of 7:35 PM on Sunday 23 Nov 2014 (Local Time) from KOZA Reporting Station
Clear Clear  
Wind Chill: 64°   Ceiling: Unl
Heat Index: 64°   Visibility: 10mi
Dew Point: 27°   Wind: 9mph
Humidity: 24%   Direction: 300°WNW
Pressure: 29.79"   Gusts: NA
Location:  30.69°N, 101.82°W
Report Text: KOZA 240135Z AUTO 30008KT 10SM CLR 18/M03 A2979 RMK AO2
Loading
Personal Weather Stations






























Interactive Weather Map New forecast layout! Learn more

10-Day Weather Forecast

Advertisements
Track Severe Weather on mobile